Airfield :
LOGIN :

Register | Disclaimer

   EN    FR    IT 

 










Legend :    VFR   Marginal VFR   IFR   Intensive IFR   Very Intensive IFR
Visi :
Ceiling :
>= 8 km
>= 3000ft
5 to 8 km
1000 to 3000 ft
1500m to 5 km
500 to 1000 ft
800 to 1500m
200 to 500 ft
< 800m
< 200 ft
Symbols :   Thunderstorms  Fog  Heavy snow  Heavy precipitations  Wind > 20 kt
SIGMETs :     Misc.  Thunderstorms  Icing  Turbulence  Mountain Waves  Volcanic Ashes







- Airport Elevation : 499 ft
- IATA code : TLS
- Download approach charts


LFBO - Toulouse / Blagnac

CURRENT METAR :
  • 220600Z AUTO 27011KT 9999 BKN014 BKN024 OVC046 12/10 Q1025 BECMG OVC016

EXPIRED METARs :
  • 220530Z AUTO 27012KT 9999 BKN013 OVC052 12/10 Q1025 BECMG OVC016
  • 220500Z AUTO 27013KT 9999 BKN012 OVC019 12/10 Q1025 TEMPO 4000 -DZ OVC008
  • 220430Z AUTO 27011KT 9999 BKN011 BKN016 OVC038 12/10 Q1025 TEMPO 4000 -DZ OVC008
  • 220400Z AUTO 27011KT 9999 BKN012 BKN018 OVC045 12/11 Q1026 TEMPO 4000 -DZ OVC008
  • 220330Z AUTO 27010KT 9999 4400 -RA BKN008 OVC012 12/11 Q1026 TEMPO 4000 -DZ

TAF TAF LFBO
Valid from the 22 at 06:00 until the 23 at 12:00 UTC


220500Z 2206/2312 27012KT 9999 OVC012
BECMG 2206/2208 OVC016
BECMG 2212/2214 27018G30KT
BECMG 2214/2216 OVC011
TEMPO 2214/2218 4000 -RADZ OVC009
BECMG 2219/2221 30010KT SCT015 BKN030
BECMG 2300/2303 VRB02KT
BECMG 2305/2307 4000 BR
BECMG 2307/2309 OVC004
PROB40 2306/2310 2000 OVC002
BECMG 2311/2312 8000 NSW SCT008
ATIS : +33 5 62 74 66 36
No reported NOTAMs for that airfield.
1 SIGMET reported for the Bordeaux FIR (LFBB) :
 
Severe turbulence
LFBB SIGMET 1 VALID 220400/220700 LFPW
LFBB BORDEAUX FIR/UIR SEV TURB FCST WI N4545 E00300 - N4215 E00230 - N4230 E00130 - N4545 E00215 - N4545 E00300 SFC/FL080 STNR NC=



MET'MAP, your aeronautical weather chart ! - Copyright ORBIFLY December 2007 - Disclaimer

ORBIFLY MET'MAP TEAM :

Programming & Development : Alexandra Zaïnal
Concept & Development : Baudouin d'Aumeries
Co-Development & Prog : Marc-Olivier Méhu
Technical & hardware support : Manuel Goepfert

Contact : metmap@orbifly.com




SOURCES & CREDITS :

   NOAA